createdAt,value
2023-05-10T00:00:33.841Z,78.89
2023-05-10T00:01:33.857Z,78.79
2023-05-10T00:02:33.906Z,78.09
2023-05-10T00:03:33.890Z,77.69
2023-05-10T00:04:33.807Z,78.29
2023-05-10T00:05:33.851Z,78.19
2023-05-10T00:06:33.829Z,78.93
2023-05-10T00:07:33.852Z,78.59
2023-05-10T00:08:33.764Z,78.33
2023-05-10T00:09:33.768Z,78.53
2023-05-10T00:10:33.805Z,79.47
2023-05-10T00:11:33.773Z,80.27
2023-05-10T00:12:33.776Z,79.87
2023-05-10T00:13:33.762Z,80.27
2023-05-10T00:14:33.767Z,80.21
2023-05-10T00:15:33.717Z,81.52
2023-05-10T00:16:33.780Z,81.62
2023-05-10T00:17:33.796Z,80.57
2023-05-10T00:18:33.740Z,80.57
2023-05-10T00:19:33.773Z,80.68
2023-05-10T00:20:33.662Z,80.98
2023-05-10T00:21:33.693Z,80.63
2023-05-10T00:22:33.687Z,80.24
2023-05-10T00:23:33.693Z,79.90
2023-05-10T00:24:34.669Z,79.39
2023-05-10T00:25:33.676Z,79.69
2023-05-10T00:26:33.641Z,80.24
2023-05-10T00:27:33.626Z,80.13
2023-05-10T00:28:33.649Z,80.33
2023-05-10T00:29:33.697Z,80.63
2023-05-10T00:30:33.616Z,79.97
2023-05-10T00:31:33.629Z,80.17
2023-05-10T00:32:33.645Z,80.77
2023-05-10T00:33:33.626Z,81.07
2023-05-10T00:34:33.615Z,81.18
2023-05-10T00:35:33.589Z,80.98
2023-05-10T00:36:33.588Z,80.88
2023-05-10T00:37:33.594Z,81.14
2023-05-10T00:38:33.555Z,80.27
2023-05-10T00:39:33.573Z,80.88
2023-05-10T00:40:33.539Z,81.04
2023-05-10T00:41:33.563Z,80.33
2023-05-10T00:42:33.536Z,81.18
2023-05-10T00:43:33.572Z,80.94
2023-05-10T00:44:33.512Z,80.27
2023-05-10T00:45:33.505Z,79.83
2023-05-10T00:46:33.640Z,79.23
2023-05-10T00:47:33.568Z,79.53
2023-05-10T00:48:33.524Z,79.93
2023-05-10T00:49:33.493Z,80.13
2023-05-10T00:50:33.480Z,80.27
2023-05-10T00:51:33.487Z,80.74
2023-05-10T00:52:33.457Z,79.93
2023-05-10T00:53:33.467Z,80.13
2023-05-10T00:54:33.455Z,79.53
2023-05-10T00:55:33.456Z,79.87
2023-05-10T00:56:33.464Z,79.47
2023-05-10T00:57:33.444Z,79.83
2023-05-10T00:58:33.418Z,79.06
2023-05-10T00:59:33.422Z,78.16
2023-05-10T01:00:33.427Z,78.46
2023-05-10T01:01:33.464Z,78.83
2023-05-10T01:02:33.489Z,79.33
2023-05-10T01:03:33.422Z,78.33
2023-05-10T01:04:33.423Z,77.86
2023-05-10T01:05:33.378Z,78.54
2023-05-10T01:06:33.382Z,79.64
2023-05-10T01:07:33.366Z,80.21
2023-05-10T01:08:33.361Z,79.61
2023-05-10T01:09:33.546Z,79.35
2023-05-10T01:10:33.384Z,80.08
2023-05-10T01:11:33.380Z,80.19
2023-05-10T01:12:33.430Z,80.79
2023-05-10T01:13:33.341Z,79.94
2023-05-10T01:14:34.835Z,79.61
2023-05-10T01:15:33.312Z,79.50
2023-05-10T01:16:33.398Z,79.00
2023-05-10T01:17:33.395Z,78.40
2023-05-10T01:18:33.353Z,78.30
2023-05-10T01:19:33.318Z,78.06
2023-05-10T01:20:33.280Z,79.00
2023-05-10T01:21:33.327Z,78.97
2023-05-10T01:22:33.292Z,77.80
2023-05-10T01:23:33.370Z,78.40
2023-05-10T01:24:33.294Z,78.70
2023-05-10T01:25:34.290Z,79.06
2023-05-10T01:26:33.288Z,79.06
2023-05-10T01:27:33.261Z,78.27
2023-05-10T01:28:33.296Z,77.56
2023-05-10T01:29:33.276Z,78.36
2023-05-10T01:30:33.237Z,77.66
2023-05-10T01:31:33.277Z,77.36
2023-05-10T01:32:33.317Z,77.72
2023-05-10T01:33:33.250Z,77.83
2023-05-10T01:34:33.237Z,77.83
2023-05-10T01:35:33.186Z,77.32
2023-05-10T01:36:33.177Z,77.16
2023-05-10T01:37:33.188Z,77.16
2023-05-10T01:38:33.174Z,77.59
2023-05-10T01:39:33.158Z,77.70
2023-05-10T01:40:33.145Z,78.56
2023-05-10T01:41:33.146Z,78.16
2023-05-10T01:42:33.145Z,77.46
2023-05-10T01:43:33.123Z,77.66
2023-05-10T01:44:33.170Z,78.06
2023-05-10T01:45:33.103Z,77.96
2023-05-10T01:46:33.137Z,77.46
2023-05-10T01:47:33.128Z,77.72
2023-05-10T01:48:33.187Z,77.42
2023-05-10T01:49:33.105Z,77.52
2023-05-10T01:50:33.087Z,77.52
2023-05-10T01:51:33.086Z,77.32
2023-05-10T01:52:33.081Z,77.22
2023-05-10T01:53:33.083Z,77.56
2023-05-10T01:54:33.070Z,77.42
2023-05-10T01:55:33.072Z,77.42
2023-05-10T01:56:33.080Z,77.42
2023-05-10T01:57:33.084Z,77.32
2023-05-10T01:58:33.046Z,77.36
2023-05-10T01:59:33.021Z,78.12
2023-05-10T02:00:33.090Z,77.72
2023-05-10T02:01:33.029Z,78.16
2023-05-10T02:02:33.023Z,77.76
2023-05-10T02:03:33.016Z,78.36
2023-05-10T02:04:33.023Z,78.56
2023-05-10T02:05:33.295Z,78.66
2023-05-10T02:06:32.990Z,78.36
2023-05-10T02:07:32.988Z,78.16
2023-05-10T02:08:32.990Z,78.06
2023-05-10T02:09:32.983Z,77.90
2023-05-10T02:10:33.014Z,78.46
2023-05-10T02:11:33.004Z,79.06
2023-05-10T02:12:32.967Z,78.36
2023-05-10T02:13:32.988Z,78.46
2023-05-10T02:14:32.998Z,78.86
2023-05-10T02:15:32.929Z,78.86
2023-05-10T02:16:32.990Z,78.86
2023-05-10T02:17:32.986Z,79.06
2023-05-10T02:18:32.956Z,78.46
2023-05-10T02:19:32.916Z,79.06
2023-05-10T02:20:32.911Z,79.06
2023-05-10T02:21:32.912Z,79.77
2023-05-10T02:22:32.945Z,79.41
2023-05-10T02:23:32.895Z,80.11
2023-05-10T02:24:32.899Z,80.31
2023-05-10T02:25:32.934Z,80.65
2023-05-10T02:26:32.888Z,80.69
2023-05-10T02:27:32.904Z,81.49
2023-05-10T02:28:32.854Z,82.24
2023-05-10T02:29:32.875Z,82.40
2023-05-10T02:30:32.887Z,83.00
2023-05-10T02:31:32.885Z,82.40
2023-05-10T02:32:32.872Z,81.84
2023-05-10T02:33:32.861Z,82.14
2023-05-10T02:34:32.842Z,82.54
2023-05-10T02:35:32.840Z,82.54
2023-05-10T02:36:32.878Z,82.84
2023-05-10T02:37:32.957Z,83.45
2023-05-10T02:38:32.821Z,83.51
2023-05-10T02:39:32.808Z,82.20
2023-05-10T02:40:32.812Z,81.59
2023-05-10T02:41:32.809Z,81.99
2023-05-10T02:42:32.815Z,81.39
2023-05-10T02:43:32.782Z,80.89
2023-05-10T02:44:32.776Z,80.99
2023-05-10T02:45:32.749Z,80.58
2023-05-10T02:46:32.775Z,81.09
2023-05-10T02:47:32.767Z,81.19
2023-05-10T02:48:32.742Z,82.24
2023-05-10T02:49:32.726Z,81.90
2023-05-10T02:50:32.731Z,81.90
2023-05-10T02:51:33.742Z,81.59
2023-05-10T02:52:32.770Z,81.43
2023-05-10T02:53:32.697Z,82.44
2023-05-10T02:54:32.710Z,84.03
2023-05-10T02:55:32.720Z,84.19
2023-05-10T02:56:32.719Z,83.99
2023-05-10T02:57:32.689Z,84.23
2023-05-10T02:58:32.690Z,84.43
2023-05-10T02:59:32.917Z,85.14
2023-05-10T03:00:32.672Z,84.77
2023-05-10T03:01:32.702Z,84.74
2023-05-10T03:02:32.714Z,85.68
2023-05-10T03:03:32.647Z,85.24
2023-05-10T03:04:32.720Z,84.77
2023-05-10T03:05:32.684Z,84.27
2023-05-10T03:06:32.647Z,84.03
2023-05-10T03:07:32.630Z,84.37
2023-05-10T03:08:32.607Z,83.46
2023-05-10T03:09:32.632Z,83.42
2023-05-10T03:10:32.618Z,82.51
2023-05-10T03:11:32.643Z,82.48
2023-05-10T03:12:32.631Z,81.98
2023-05-10T03:13:32.729Z,80.57
2023-05-10T03:14:32.581Z,80.06
2023-05-10T03:15:32.568Z,80.06
2023-05-10T03:16:32.605Z,80.66
2023-05-10T03:17:32.576Z,79.62
2023-05-10T03:18:32.665Z,79.22
2023-05-10T03:19:32.569Z,78.81
2023-05-10T03:20:32.558Z,78.38
2023-05-10T03:21:32.544Z,78.17
2023-05-10T03:22:32.583Z,78.81
2023-05-10T03:23:32.531Z,79.11
2023-05-10T03:24:32.524Z,78.47
2023-05-10T03:25:32.545Z,79.22
2023-05-10T03:26:32.538Z,79.42
2023-05-10T03:27:32.511Z,79.32
2023-05-10T03:28:32.523Z,79.02
2023-05-10T03:29:32.519Z,79.52
2023-05-10T03:30:32.521Z,79.29
2023-05-10T03:31:32.536Z,80.80
2023-05-10T03:32:32.512Z,81.55
2023-05-10T03:33:32.515Z,82.50
2023-05-10T03:34:32.527Z,82.96
2023-05-10T03:35:32.465Z,82.76
2023-05-10T03:36:32.481Z,82.45
2023-05-10T03:37:32.486Z,82.35
2023-05-10T03:38:32.476Z,82.56
2023-05-10T03:39:32.502Z,82.35
2023-05-10T03:40:32.504Z,82.15
2023-05-10T03:41:32.419Z,82.05
2023-05-10T03:42:32.442Z,82.15
2023-05-10T03:43:32.453Z,82.21
2023-05-10T03:44:32.430Z,82.71
2023-05-10T03:45:32.422Z,82.51
2023-05-10T03:46:32.426Z,81.30
2023-05-10T03:47:32.473Z,82.35
2023-05-10T03:48:32.387Z,82.56
2023-05-10T03:49:32.420Z,82.39
2023-05-10T03:50:32.408Z,82.56
2023-05-10T03:51:32.391Z,82.56
2023-05-10T03:52:32.353Z,83.36
2023-05-10T03:53:32.386Z,83.06
2023-05-10T03:54:32.353Z,83.80
2023-05-10T03:55:32.337Z,83.70
2023-05-10T03:56:32.378Z,84.11
2023-05-10T03:57:32.357Z,83.80
2023-05-10T03:58:32.330Z,83.91
2023-05-10T03:59:32.331Z,84.45
2023-05-10T04:00:32.316Z,84.45
2023-05-10T04:01:32.333Z,83.54
2023-05-10T04:02:32.382Z,83.60
2023-05-10T04:03:32.403Z,83.70
2023-05-10T04:04:32.311Z,83.80
2023-05-10T04:05:32.275Z,83.46
2023-05-10T04:06:32.344Z,83.56
2023-05-10T04:07:32.292Z,83.66
2023-05-10T04:08:32.298Z,83.76
2023-05-10T04:09:32.305Z,83.70
2023-05-10T04:10:32.273Z,83.95
2023-05-10T04:11:32.264Z,83.98
2023-05-10T04:12:32.248Z,83.54
2023-05-10T04:13:32.279Z,83.64
2023-05-10T04:14:32.226Z,83.64
2023-05-10T04:15:32.266Z,83.44
2023-05-10T04:16:32.411Z,83.70
2023-05-10T04:17:32.238Z,83.60
2023-05-10T04:18:32.421Z,83.80
2023-05-10T04:19:32.214Z,83.60
2023-05-10T04:20:32.227Z,83.66
2023-05-10T04:21:32.236Z,83.66
2023-05-10T04:22:32.224Z,83.80
2023-05-10T04:23:32.196Z,83.80
2023-05-10T04:24:32.185Z,83.80
2023-05-10T04:25:33.247Z,83.56
2023-05-10T04:26:32.178Z,83.70
2023-05-10T04:27:32.146Z,83.60
2023-05-10T04:28:32.156Z,83.60
2023-05-10T04:29:32.202Z,83.56
2023-05-10T04:30:32.182Z,83.60
2023-05-10T04:31:32.143Z,83.60
2023-05-10T04:32:32.186Z,83.50
2023-05-10T04:33:32.132Z,83.00
2023-05-10T04:34:32.124Z,82.29
2023-05-10T04:35:32.146Z,83.30
2023-05-10T04:36:32.132Z,83.74
2023-05-10T04:37:32.166Z,83.74
2023-05-10T04:38:32.094Z,83.84
2023-05-10T04:39:32.155Z,83.24
2023-05-10T04:40:32.090Z,82.90
2023-05-10T04:41:32.078Z,83.74
2023-05-10T04:42:32.072Z,83.84
2023-05-10T04:43:32.054Z,83.95
2023-05-10T04:44:32.058Z,83.70
2023-05-10T04:45:32.116Z,83.80
2023-05-10T04:46:32.120Z,82.39
2023-05-10T04:47:32.067Z,82.09
2023-05-10T04:48:32.093Z,82.39
2023-05-10T04:49:32.039Z,83.74
2023-05-10T04:50:32.085Z,83.70
2023-05-10T04:51:32.004Z,83.80
2023-05-10T04:52:32.008Z,82.59
2023-05-10T04:53:31.987Z,81.85
2023-05-10T04:54:31.992Z,81.45
2023-05-10T04:55:32.020Z,81.45
2023-05-10T04:56:32.053Z,80.90
2023-05-10T04:57:32.035Z,81.30
2023-05-10T04:58:31.981Z,81.41
2023-05-10T04:59:32.872Z,80.40
2023-05-10T05:00:31.974Z,80.74
2023-05-10T05:01:32.050Z,80.44
2023-05-10T05:02:32.022Z,81.18
2023-05-10T05:03:32.125Z,81.28
2023-05-10T05:04:31.944Z,81.79
2023-05-10T05:05:33.338Z,81.79
2023-05-10T05:06:31.928Z,82.05
2023-05-10T05:07:32.005Z,81.24
2023-05-10T05:08:31.998Z,81.24
2023-05-10T05:09:31.920Z,80.60
2023-05-10T05:10:31.958Z,81.41
2023-05-10T05:11:31.957Z,80.94
2023-05-10T05:12:31.980Z,81.18
2023-05-10T05:13:31.953Z,81.18
2023-05-10T05:14:31.961Z,82.09
2023-05-10T05:15:31.892Z,82.64
2023-05-10T05:16:31.919Z,82.23
2023-05-10T05:17:31.912Z,83.95
2023-05-10T05:18:31.856Z,83.14
2023-05-10T05:19:31.923Z,83.88
2023-05-10T05:20:31.873Z,84.59
2023-05-10T05:21:31.837Z,84.29
2023-05-10T05:22:31.851Z,83.84
2023-05-10T05:23:31.924Z,84.09
2023-05-10T05:24:31.845Z,84.49
2023-05-10T05:25:31.860Z,83.84
2023-05-10T05:26:31.844Z,83.60
2023-05-10T05:27:31.836Z,83.64
2023-05-10T05:28:31.816Z,83.84
2023-05-10T05:29:31.858Z,83.74
2023-05-10T05:30:31.819Z,83.64
2023-05-10T05:31:32.459Z,83.58
2023-05-10T05:32:31.795Z,83.28
2023-05-10T05:33:31.809Z,83.88
2023-05-10T05:34:31.765Z,83.54
2023-05-10T05:35:31.760Z,84.09
2023-05-10T05:36:32.887Z,83.78
2023-05-10T05:37:31.778Z,83.88
2023-05-10T05:38:31.780Z,84.09
2023-05-10T05:39:31.750Z,83.54
2023-05-10T05:40:32.737Z,83.64
2023-05-10T05:41:31.716Z,83.38
2023-05-10T05:42:31.740Z,83.72
2023-05-10T05:43:31.769Z,84.47
2023-05-10T05:44:31.723Z,84.73
2023-05-10T05:45:31.767Z,84.83
2023-05-10T05:46:31.674Z,84.19
2023-05-10T05:47:31.746Z,83.88
2023-05-10T05:48:31.725Z,84.09
2023-05-10T05:49:31.717Z,84.09
2023-05-10T05:50:31.670Z,84.19
2023-05-10T05:51:31.757Z,84.39
2023-05-10T05:52:31.691Z,83.64
2023-05-10T05:53:31.714Z,83.24
2023-05-10T05:54:31.659Z,83.64
2023-05-10T05:55:31.617Z,83.44
2023-05-10T05:56:31.681Z,83.64
2023-05-10T05:57:31.666Z,83.84
2023-05-10T05:58:31.696Z,83.68
2023-05-10T05:59:32.284Z,82.84
2023-05-10T06:00:31.603Z,82.39
2023-05-10T06:01:31.671Z,82.64
2023-05-10T06:02:31.815Z,83.38
2023-05-10T06:03:31.757Z,83.88
2023-05-10T06:04:31.695Z,83.44
2023-05-10T06:05:31.575Z,83.20
2023-05-10T06:06:31.589Z,83.84
2023-05-10T06:07:31.598Z,82.59
2023-05-10T06:08:31.577Z,81.55
2023-05-10T06:09:31.572Z,80.54
2023-05-10T06:10:31.586Z,80.44
2023-05-10T06:11:31.604Z,80.54
2023-05-10T06:12:31.588Z,80.44
2023-05-10T06:13:31.708Z,80.44
2023-05-10T06:14:31.561Z,80.74
2023-05-10T06:15:31.545Z,81.38
2023-05-10T06:16:31.602Z,81.08
2023-05-10T06:17:31.570Z,82.39
2023-05-10T06:18:32.536Z,81.68
2023-05-10T06:19:31.644Z,81.73
2023-05-10T06:20:31.573Z,81.62
2023-05-10T06:21:31.521Z,81.12
2023-05-10T06:22:31.503Z,82.29
2023-05-10T06:23:31.489Z,81.18
2023-05-10T06:24:31.550Z,80.88
2023-05-10T06:25:31.508Z,80.80
2023-05-10T06:26:31.478Z,80.78
2023-05-10T06:28:03.887Z,81.59
2023-05-10T06:28:31.511Z,80.51
2023-05-10T06:29:31.461Z,81.62
2023-05-10T06:30:31.959Z,80.72
2023-05-10T06:31:31.530Z,81.22
2023-05-10T06:32:31.490Z,81.52
2023-05-10T06:33:31.431Z,82.47
2023-05-10T06:34:31.496Z,83.74
2023-05-10T06:35:31.424Z,82.84
2023-05-10T06:36:31.412Z,82.64
2023-05-10T06:37:31.414Z,81.99
2023-05-10T06:38:31.400Z,80.94
2023-05-10T06:39:31.404Z,81.30
2023-05-10T06:40:31.485Z,80.60
2023-05-10T06:41:31.380Z,78.91
2023-05-10T06:42:31.362Z,78.81
2023-05-10T06:43:31.363Z,78.21
2023-05-10T06:44:31.351Z,77.77
2023-05-10T06:45:31.335Z,77.87
2023-05-10T06:46:31.413Z,77.67
2023-05-10T06:47:31.384Z,77.43
2023-05-10T06:48:31.315Z,75.96
2023-05-10T06:49:31.319Z,77.34
2023-05-10T06:50:31.308Z,78.96
2023-05-10T06:51:31.349Z,78.01
2023-05-10T06:52:31.328Z,77.77
2023-05-10T06:53:31.313Z,77.47
2023-05-10T06:54:31.273Z,77.81
2023-05-10T06:55:31.965Z,78.31
2023-05-10T06:56:31.282Z,79.02
2023-05-10T06:57:32.218Z,78.25
2023-05-10T06:58:32.266Z,79.05
2023-05-10T06:59:31.258Z,78.35
2023-05-10T07:00:31.281Z,78.59
2023-05-10T07:01:31.271Z,78.89
2023-05-10T07:02:31.349Z,79.36
2023-05-10T07:03:31.316Z,79.60
2023-05-10T07:04:31.273Z,78.31
2023-05-10T07:05:31.317Z,78.51
2023-05-10T07:06:34.105Z,78.07
2023-05-10T07:07:31.256Z,77.07
2023-05-10T07:08:31.201Z,77.13
2023-05-10T07:09:31.227Z,76.69
2023-05-10T07:10:31.179Z,76.83
2023-05-10T07:11:31.182Z,77.03
2023-05-10T07:12:31.248Z,76.03
2023-05-10T07:13:31.217Z,75.89
2023-05-10T07:14:32.164Z,75.92
2023-05-10T07:15:31.170Z,75.79
2023-05-10T07:16:31.211Z,76.09
2023-05-10T07:17:31.219Z,75.42
2023-05-10T07:18:31.226Z,76.20
2023-05-10T07:19:31.173Z,77.50
2023-05-10T07:20:31.158Z,77.37
2023-05-10T07:21:31.253Z,77.42
2023-05-10T07:22:31.128Z,79.53
2023-05-10T07:23:31.886Z,80.27
2023-05-10T07:24:31.115Z,79.93
2023-05-10T07:25:31.194Z,79.53
2023-05-10T07:26:31.113Z,79.23
2023-05-10T07:27:31.091Z,77.72
2023-05-10T07:28:31.088Z,78.83
2023-05-10T07:29:31.075Z,79.03
2023-05-10T07:30:31.146Z,79.73
2023-05-10T07:31:31.074Z,79.43
2023-05-10T07:32:31.213Z,79.73
2023-05-10T07:33:31.053Z,78.83
2023-05-10T07:34:31.057Z,79.29
2023-05-10T07:35:31.039Z,78.99
2023-05-10T07:36:31.057Z,77.72
2023-05-10T07:37:31.066Z,77.82
2023-05-10T07:38:31.027Z,78.15
2023-05-10T07:39:31.027Z,77.78
2023-05-10T07:40:31.055Z,78.19
2023-05-10T07:41:31.006Z,77.58
2023-05-10T07:42:31.043Z,77.28
2023-05-10T07:43:31.043Z,77.44
2023-05-10T07:44:30.978Z,77.75
2023-05-10T07:45:31.035Z,77.31
2023-05-10T07:46:30.990Z,77.11
2023-05-10T07:47:31.036Z,76.10
2023-05-10T07:48:30.990Z,75.63
2023-05-10T07:49:30.962Z,74.52
2023-05-10T07:50:30.929Z,76.30
2023-05-10T07:51:30.944Z,75.46
2023-05-10T07:52:30.983Z,74.35
2023-05-10T07:53:30.969Z,73.88
2023-05-10T07:54:30.989Z,73.38
2023-05-10T07:55:30.932Z,74.35
2023-05-10T07:56:30.975Z,72.03
2023-05-10T07:57:30.925Z,71.83
2023-05-10T07:58:30.917Z,70.63
2023-05-10T07:59:30.938Z,71.50
2023-05-10T08:00:30.936Z,71.70
2023-05-10T08:01:30.868Z,70.70
2023-05-10T08:02:30.978Z,70.70
2023-05-10T08:03:30.975Z,69.53
2023-05-10T08:04:30.962Z,68.29
2023-05-10T08:05:30.859Z,66.95
2023-05-10T08:06:31.049Z,66.42
2023-05-10T08:07:30.912Z,66.59
2023-05-10T08:08:30.838Z,63.33
2023-05-10T08:09:30.872Z,62.99
2023-05-10T08:10:31.027Z,64.92
2023-05-10T08:11:31.157Z,65.12
2023-05-10T08:12:30.823Z,64.19
2023-05-10T08:13:30.802Z,63.49
2023-05-10T08:14:30.845Z,62.99
2023-05-10T08:15:30.940Z,63.79
2023-05-10T08:16:30.910Z,62.06
2023-05-10T08:17:30.803Z,63.02
2023-05-10T08:18:30.802Z,64.45
2023-05-10T08:19:30.808Z,65.05
2023-05-10T08:20:30.743Z,64.79
2023-05-10T08:21:30.762Z,64.72
2023-05-10T08:22:30.736Z,67.42
2023-05-10T08:23:30.751Z,66.75
2023-05-10T08:24:30.761Z,65.99
2023-05-10T08:25:30.976Z,63.09
2023-05-10T08:26:30.712Z,60.00
2023-05-10T08:27:30.701Z,58.38
2023-05-10T08:28:30.733Z,57.58
2023-05-10T08:29:38.594Z,57.78
2023-05-10T08:30:31.696Z,57.68
2023-05-10T08:31:30.752Z,59.52
2023-05-10T08:32:30.667Z,62.58
2023-05-10T08:33:30.664Z,63.28
2023-05-10T08:34:30.697Z,64.98
2023-05-10T08:35:30.676Z,64.75
2023-05-10T08:36:30.680Z,63.06
2023-05-10T08:37:30.650Z,60.12
2023-05-10T08:38:30.660Z,60.57
2023-05-10T08:39:30.972Z,56.83
2023-05-10T08:40:31.659Z,54.50
2023-05-10T08:41:30.661Z,53.80
2023-05-10T08:42:30.615Z,51.20
2023-05-10T08:43:30.687Z,51.89
2023-05-10T08:44:30.600Z,53.02
2023-05-10T08:45:30.685Z,52.81
2023-05-10T08:46:30.703Z,54.56
2023-05-10T08:47:30.634Z,54.75
2023-05-10T08:48:30.580Z,53.46
2023-05-10T08:49:30.582Z,54.80
2023-05-10T08:50:31.390Z,53.01
2023-05-10T08:51:30.556Z,51.84
2023-05-10T08:52:30.589Z,50.65
2023-05-10T08:53:30.591Z,53.02
2023-05-10T08:54:30.562Z,51.67
2023-05-10T08:55:30.555Z,50.95
2023-05-10T08:56:30.535Z,51.52
2023-05-10T08:57:30.561Z,53.58
2023-05-10T08:58:30.557Z,53.76
2023-05-10T08:59:30.527Z,54.83
2023-05-10T09:00:30.522Z,56.68
2023-05-10T09:01:30.562Z,58.44
2023-05-10T09:02:30.544Z,58.68
2023-05-10T09:03:30.675Z,55.46
2023-05-10T09:04:30.653Z,55.86
2023-05-10T09:05:30.549Z,56.43
2023-05-10T09:06:30.497Z,56.01
2023-05-10T09:07:30.622Z,55.41
2023-05-10T09:08:30.464Z,56.41
2023-05-10T09:09:30.569Z,58.37
2023-05-10T09:10:30.466Z,57.81
2023-05-10T09:11:30.537Z,54.46
2023-05-10T09:12:30.445Z,53.58
2023-05-10T09:13:30.453Z,51.60
2023-05-10T09:14:30.436Z,51.10
2023-05-10T09:15:30.453Z,50.38
2023-05-10T09:16:30.469Z,48.67
2023-05-10T09:17:30.409Z,47.61
2023-05-10T09:18:30.506Z,49.11
2023-05-10T09:19:30.511Z,50.95
2023-05-10T09:20:30.407Z,50.26
2023-05-10T09:21:30.381Z,51.65
2023-05-10T09:22:30.361Z,54.94
2023-05-10T09:23:30.385Z,55.13
2023-05-10T09:24:30.424Z,57.26
2023-05-10T09:25:30.351Z,58.92
2023-05-10T09:26:30.392Z,59.92
2023-05-10T09:27:30.364Z,59.49
2023-05-10T09:28:30.316Z,59.44
2023-05-10T09:29:30.360Z,56.30
2023-05-10T09:30:30.332Z,51.75
2023-05-10T09:31:30.593Z,50.63
2023-05-10T09:32:30.350Z,50.45
2023-05-10T09:33:30.307Z,51.20
2023-05-10T09:34:30.364Z,50.60
2023-05-10T09:35:30.345Z,50.93
2023-05-10T09:36:30.291Z,49.04
2023-05-10T09:37:30.313Z,49.34
2023-05-10T09:38:30.351Z,51.57
2023-05-10T09:39:30.257Z,51.89
2023-05-10T09:40:30.250Z,54.56
2023-05-10T09:41:30.262Z,53.71
2023-05-10T09:42:30.246Z,54.27
2023-05-10T09:43:30.287Z,56.71
2023-05-10T09:44:30.280Z,56.09
2023-05-10T09:45:30.207Z,55.46
2023-05-10T09:46:30.250Z,55.83
2023-05-10T09:47:30.249Z,55.66
2023-05-10T09:48:30.196Z,56.16
2023-05-10T09:49:30.403Z,56.98
2023-05-10T09:50:30.224Z,58.01
2023-05-10T09:51:30.190Z,58.73
2023-05-10T09:52:30.159Z,58.37
2023-05-10T09:53:30.159Z,58.19
2023-05-10T09:54:30.206Z,58.69
2023-05-10T09:55:30.133Z,58.80
2023-05-10T09:56:30.138Z,59.34
2023-05-10T09:57:30.144Z,58.73
2023-05-10T09:58:30.136Z,58.61
2023-05-10T09:59:30.154Z,57.84
2023-05-10T10:00:30.132Z,57.65
2023-05-10T10:01:30.507Z,55.88
2023-05-10T10:02:30.351Z,54.13
2023-05-10T10:03:30.446Z,52.19
2023-05-10T10:04:31.181Z,49.24
2023-05-10T10:05:30.108Z,48.18
2023-05-10T10:06:30.755Z,47.09
2023-05-10T10:07:30.163Z,47.29
2023-05-10T10:08:30.122Z,46.30
2023-05-10T10:09:30.105Z,46.72
2023-05-10T10:10:30.086Z,46.30
2023-05-10T10:11:30.071Z,47.22
2023-05-10T10:12:30.075Z,44.90
2023-05-10T10:13:30.065Z,45.41
2023-05-10T10:14:30.109Z,44.43
2023-05-10T10:15:30.061Z,43.07
2023-05-10T10:16:30.182Z,43.13
2023-05-10T10:17:30.092Z,43.15
2023-05-10T10:18:30.056Z,44.20
2023-05-10T10:19:30.077Z,43.93
2023-05-10T10:20:30.007Z,43.96
2023-05-10T10:21:30.029Z,41.00
2023-05-10T10:22:29.998Z,41.33
2023-05-10T10:23:30.007Z,43.45
2023-05-10T10:24:29.974Z,42.29
2023-05-10T10:25:30.024Z,46.47
2023-05-10T10:26:30.009Z,46.30
2023-05-10T10:27:30.043Z,45.70
2023-05-10T10:28:29.969Z,46.39
2023-05-10T10:29:29.970Z,46.42
2023-05-10T10:30:29.996Z,44.86
2023-05-10T10:31:30.057Z,43.21
2023-05-10T10:32:29.956Z,42.88
2023-05-10T10:33:30.116Z,43.53
2023-05-10T10:34:29.928Z,42.82
2023-05-10T10:35:29.947Z,41.86
2023-05-10T10:36:29.910Z,41.09
2023-05-10T10:37:30.439Z,40.76
2023-05-10T10:38:29.953Z,38.46
2023-05-10T10:39:29.873Z,38.28
2023-05-10T10:40:31.320Z,38.42
2023-05-10T10:41:29.881Z,39.72
2023-05-10T10:42:30.870Z,39.28
2023-05-10T10:43:29.904Z,38.40
2023-05-10T10:44:29.854Z,37.67
2023-05-10T10:45:29.882Z,39.79
2023-05-10T10:46:29.869Z,42.40
2023-05-10T10:47:29.848Z,42.71
2023-05-10T10:48:29.861Z,43.84
2023-05-10T10:49:29.844Z,43.64
2023-05-10T10:50:29.829Z,45.78
2023-05-10T10:51:29.834Z,47.41
2023-05-10T10:52:29.845Z,48.11
2023-05-10T10:53:30.568Z,47.79
2023-05-10T10:54:29.898Z,47.56
2023-05-10T10:55:29.798Z,47.14
2023-05-10T10:56:29.778Z,46.80
2023-05-10T10:57:29.780Z,46.34
2023-05-10T10:58:29.758Z,45.52
2023-05-10T10:59:29.798Z,44.33
2023-05-10T11:00:29.803Z,46.41
2023-05-10T11:01:29.839Z,47.14
2023-05-10T11:02:31.259Z,48.94
2023-05-10T11:03:29.768Z,47.02
2023-05-10T11:04:29.835Z,46.92
2023-05-10T11:05:29.748Z,46.36
2023-05-10T11:06:29.800Z,46.42
2023-05-10T11:07:29.776Z,45.72
2023-05-10T11:08:29.734Z,46.62
2023-05-10T11:09:29.759Z,45.53
2023-05-10T11:10:29.777Z,43.57
2023-05-10T11:11:29.703Z,45.05
2023-05-10T11:12:29.741Z,46.26
2023-05-10T11:13:29.677Z,47.30
2023-05-10T11:14:29.751Z,49.83
2023-05-10T11:15:29.739Z,51.79
2023-05-10T11:16:29.706Z,52.25
2023-05-10T11:17:29.720Z,52.79
2023-05-10T11:18:29.759Z,54.09
2023-05-10T11:19:29.682Z,53.84
2023-05-10T11:20:29.667Z,53.49
2023-05-10T11:21:29.667Z,52.81
2023-05-10T11:22:29.678Z,51.92
2023-05-10T11:23:29.605Z,51.32
2023-05-10T11:24:29.611Z,52.39
2023-05-10T11:25:29.641Z,52.02
2023-05-10T11:26:29.627Z,53.49
2023-05-10T11:27:29.644Z,51.79
2023-05-10T11:28:29.735Z,51.92
2023-05-10T11:29:29.615Z,51.10
2023-05-10T11:30:29.582Z,51.92
2023-05-10T11:31:29.807Z,51.82
2023-05-10T11:32:29.555Z,51.72
2023-05-10T11:33:29.543Z,52.22
2023-05-10T11:34:29.552Z,52.72
2023-05-10T11:35:29.537Z,53.02
2023-05-10T11:36:29.580Z,53.86
2023-05-10T11:37:29.560Z,54.53
2023-05-10T11:38:29.514Z,53.09
2023-05-10T11:39:29.574Z,53.96
2023-05-10T11:40:29.498Z,53.06
2023-05-10T11:41:29.515Z,52.79
2023-05-10T11:42:30.381Z,53.41
2023-05-10T11:43:29.480Z,54.53
2023-05-10T11:44:29.498Z,54.04
2023-05-10T11:45:29.479Z,55.21
2023-05-10T11:46:29.528Z,52.19
2023-05-10T11:47:29.545Z,52.74
2023-05-10T11:48:29.449Z,51.89
2023-05-10T11:49:29.516Z,51.82
2023-05-10T11:50:29.458Z,52.34
2023-05-10T11:51:29.431Z,52.09
2023-05-10T11:52:29.438Z,52.74
2023-05-10T11:53:29.455Z,52.72
2023-05-10T11:54:29.425Z,54.75
2023-05-10T11:55:29.488Z,55.46
2023-05-10T11:56:29.399Z,55.33
2023-05-10T11:57:29.423Z,55.33
2023-05-10T11:58:29.475Z,55.46
2023-05-10T11:59:29.421Z,55.46
2023-05-10T12:00:29.384Z,54.63
2023-05-10T12:01:30.027Z,55.35
2023-05-10T12:02:29.438Z,55.53
2023-05-10T12:03:29.611Z,56.32
2023-05-10T12:04:29.385Z,55.70
2023-05-10T12:05:29.348Z,54.46
2023-05-10T12:06:29.355Z,54.33
2023-05-10T12:07:29.344Z,53.44
2023-05-10T12:08:29.343Z,52.81
2023-05-10T12:09:42.700Z,55.20
2023-05-10T12:10:31.391Z,55.35
2023-05-10T12:11:29.315Z,56.77
2023-05-10T12:12:29.282Z,55.68
2023-05-10T12:13:29.268Z,57.40
2023-05-10T12:14:29.313Z,58.23
2023-05-10T12:15:29.311Z,57.93
2023-05-10T12:16:29.377Z,58.65
2023-05-10T12:17:29.383Z,60.80
2023-05-10T12:18:29.307Z,60.71
2023-05-10T12:19:29.318Z,62.20
2023-05-10T12:20:29.220Z,62.06
2023-05-10T12:21:29.257Z,63.09
2023-05-10T12:22:29.296Z,62.72
2023-05-10T12:23:29.261Z,63.56
2023-05-10T12:24:29.239Z,64.12
2023-05-10T12:25:29.209Z,63.32
2023-05-10T12:26:29.211Z,63.42
2023-05-10T12:27:29.211Z,64.92
2023-05-10T12:28:29.218Z,63.02
2023-05-10T12:29:29.193Z,64.86
2023-05-10T12:30:29.235Z,65.45
2023-05-10T12:31:29.233Z,65.66
2023-05-10T12:32:29.206Z,66.46
2023-05-10T12:33:29.193Z,66.52
2023-05-10T12:34:29.129Z,67.79
2023-05-10T12:35:29.200Z,68.92
2023-05-10T12:36:29.142Z,68.79
2023-05-10T12:37:29.142Z,67.79
2023-05-10T12:38:29.115Z,70.59
2023-05-10T12:39:29.123Z,69.19
2023-05-10T12:40:30.597Z,69.12
2023-05-10T12:41:29.097Z,70.53
2023-05-10T12:42:29.082Z,71.73
2023-05-10T12:43:29.128Z,70.59
2023-05-10T12:44:29.077Z,70.50
2023-05-10T12:45:29.105Z,69.99
2023-05-10T12:46:29.403Z,72.03
2023-05-10T12:47:29.093Z,69.96
2023-05-10T12:48:29.110Z,71.03
2023-05-10T12:49:29.068Z,70.36
2023-05-10T12:50:29.086Z,67.06
2023-05-10T12:51:29.111Z,70.42
2023-05-10T12:52:29.100Z,66.43